Time;durP1;ratioP1;P1;durP2;ratioP2;P2;SDS_P1;SDS_P2;PMS_P1;PMS_P2;Temp;Humidity;BMP_temperature;BMP_pressure;BME280_temperature;BME280_humidity;BME280_pressure;Samples;Min_cycle;Max_cycle;Signal;HPM_P1;HPM_P2
2024/01/14 00:00:37;;;;;;;17.42;6.30;;;;;;;1.16;97.71;100747.06;5068557;28;20028;-68
2024/01/14 00:03:04;;;;;;;16.42;7.78;;;;;;;1.15;98.02;100750.53;5069142;28;20116;-68
2024/01/14 00:05:29;;;;;;;17.50;8.73;;;;;;;1.11;98.51;100739.59;5067291;28;20041;-67
2024/01/14 00:07:55;;;;;;;13.07;7.32;;;;;;;1.11;98.94;100738.78;5070366;28;20496;-68
2024/01/14 00:10:22;;;;;;;18.52;6.85;;;;;;;1.09;99.50;100735.47;5072360;28;20482;-68
2024/01/14 00:12:47;;;;;;;17.17;7.55;;;;;;;1.07;100.00;100739.84;5074284;28;20094;-68
2024/01/14 00:15:13;;;;;;;14.88;6.78;;;;;;;1.08;100.00;100739.75;5071757;28;20037;-68
2024/01/14 00:17:39;;;;;;;15.82;6.88;;;;;;;1.07;100.00;100738.09;5077493;28;20473;-68
2024/01/14 00:20:05;;;;;;;15.32;7.85;;;;;;;1.05;100.00;100736.50;5072724;28;20032;-67
2024/01/14 00:22:31;;;;;;;15.38;6.20;;;;;;;1.04;100.00;100737.41;5070534;28;20020;-69
2024/01/14 00:24:56;;;;;;;16.52;7.70;;;;;;;1.08;99.07;100736.38;5073545;28;20020;-68
2024/01/14 00:27:22;;;;;;;13.95;6.80;;;;;;;1.18;97.09;100737.56;5077557;28;20327;-68
2024/01/14 00:29:47;;;;;;;15.82;7.10;;;;;;;1.28;96.08;100736.19;5070566;28;20060;-68
2024/01/14 00:32:12;;;;;;;21.20;7.43;;;;;;;1.34;94.50;100741.00;5074860;28;20079;-68
2024/01/14 00:34:41;;;;;;;17.85;6.13;;;;;;;1.45;93.00;100735.28;5073813;28;20117;-68
2024/01/14 00:37:07;;;;;;;16.90;6.32;;;;;;;1.54;91.76;100725.38;5072206;28;20021;-68
2024/01/14 00:39:37;;;;;;;15.45;6.53;;;;;;;1.56;91.00;100733.81;5072520;28;20737;-68
2024/01/14 00:42:03;;;;;;;16.52;6.03;;;;;;;1.56;90.62;100733.00;5073948;28;20034;-68
2024/01/14 00:44:28;;;;;;;15.73;5.95;;;;;;;1.54;90.39;100727.94;5071077;28;20457;-68
2024/01/14 00:46:53;;;;;;;13.30;6.43;;;;;;;1.52;90.17;100714.34;5074302;28;20520;-68
2024/01/14 00:49:19;;;;;;;12.25;5.15;;;;;;;1.48;91.32;100718.00;5074799;28;20068;-68
2024/01/14 00:51:46;;;;;;;15.65;5.65;;;;;;;1.50;90.30;100715.34;5069664;28;20489;-69
2024/01/14 00:54:11;;;;;;;14.40;5.50;;;;;;;1.51;90.25;100719.56;5072235;28;20051;-68
2024/01/14 00:56:37;;;;;;;15.70;5.70;;;;;;;1.51;90.22;100706.72;5072209;28;20111;-69
2024/01/14 00:59:02;;;;;;;10.95;5.10;;;;;;;1.51;89.49;100699.84;5071750;28;20105;-68
2024/01/14 01:01:28;;;;;;;14.45;6.43;;;;;;;1.48;89.60;100705.16;5072684;28;20485;-68
2024/01/14 01:03:53;;;;;;;13.75;5.68;;;;;;;1.51;89.46;100702.41;5071274;28;20036;-68
2024/01/14 01:06:19;;;;;;;12.60;5.95;;;;;;;1.49;89.65;100701.66;5071330;28;20397;-68
2024/01/14 01:08:44;;;;;;;11.93;5.32;;;;;;;1.48;89.70;100704.31;5069791;28;20035;-68
2024/01/14 01:11:10;;;;;;;17.63;5.80;;;;;;;1.46;90.77;100694.13;5072163;28;20029;-68
2024/01/14 01:13:35;;;;;;;13.90;5.63;;;;;;;1.48;90.19;100694.88;5074568;28;20075;-68
2024/01/14 01:16:01;;;;;;;17.52;5.95;;;;;;;1.50;89.88;100687.09;5068564;28;20379;-68
2024/01/14 01:18:26;;;;;;;13.85;6.15;;;;;;;1.54;91.09;100694.56;5076792;28;20055;-67
2024/01/14 01:20:51;;;;;;;12.55;5.55;;;;;;;1.52;91.54;100695.56;5067119;28;20028;-68
2024/01/14 01:23:17;;;;;;;14.57;5.63;;;;;;;1.46;91.34;100693.31;5076674;28;20047;-68
2024/01/14 01:25:42;;;;;;;21.77;6.20;;;;;;;1.47;90.54;100689.81;5074618;28;20035;-68
2024/01/14 01:28:09;;;;;;;15.88;5.47;;;;;;;1.53;90.33;100689.50;5070147;28;20037;-66
2024/01/14 01:30:35;;;;;;;14.57;4.97;;;;;;;1.54;89.65;100689.41;5068914;28;20039;-67
2024/01/14 01:33:00;;;;;;;14.20;5.80;;;;;;;1.53;89.92;100680.06;5073679;28;20028;-67
2024/01/14 01:35:26;;;;;;;9.98;5.53;;;;;;;1.55;89.14;100674.84;5069695;28;20536;-67
2024/01/14 01:37:51;;;;;;;12.40;5.18;;;;;;;1.54;89.28;100678.31;5070588;28;20115;-67
2024/01/14 01:40:17;;;;;;;16.60;5.53;;;;;;;1.52;88.86;100672.44;5071307;28;20493;-67
2024/01/14 01:42:42;;;;;;;14.30;5.85;;;;;;;1.48;88.90;100669.19;5069401;28;20028;-66
2024/01/14 01:45:09;;;;;;;15.20;4.90;;;;;;;1.47;89.30;100666.72;5070642;28;20419;-67
2024/01/14 01:47:35;;;;;;;15.93;5.68;;;;;;;1.47;88.83;100664.16;5072292;28;20047;-67
2024/01/14 01:50:01;;;;;;;23.95;6.18;;;;;;;1.47;88.93;100659.00;5069470;28;20031;-66
2024/01/14 01:52:27;;;;;;;12.95;5.43;;;;;;;1.44;89.08;100652.31;5076132;28;20388;-66
2024/01/14 01:54:54;;;;;;;12.30;4.82;;;;;;;1.41;88.94;100656.78;5072893;28;20047;-66
2024/01/14 01:57:22;;;;;;;13.30;5.70;;;;;;;1.35;89.12;100655.38;5070965;28;20039;-68
2024/01/14 01:59:47;;;;;;;11.73;5.30;;;;;;;1.30;89.52;100642.78;5070187;28;20037;-68
2024/01/14 02:02:13;;;;;;;13.32;5.30;;;;;;;1.21;89.42;100640.69;5067762;28;20056;-68
2024/01/14 02:04:39;;;;;;;13.20;4.40;;;;;;;1.19;89.69;100637.38;5070917;28;20028;-68
2024/01/14 02:07:06;;;;;;;14.05;5.40;;;;;;;1.20;89.82;100638.22;5072278;28;20031;-69
2024/01/14 02:09:33;;;;;;;11.80;4.60;;;;;;;1.23;89.38;100638.06;5071712;28;20032;-69
2024/01/14 02:12:00;;;;;;;14.50;5.40;;;;;;;1.22;89.94;100631.25;5072241;28;20032;-68
2024/01/14 02:14:25;;;;;;;11.48;4.60;;;;;;;1.22;89.64;100618.44;5069750;28;20040;-68
2024/01/14 02:16:53;;;;;;;15.68;5.75;;;;;;;1.29;89.28;100619.75;5069432;28;20040;-68
2024/01/14 02:19:18;;;;;;;13.60;5.82;;;;;;;1.35;89.44;100605.78;5070054;28;20043;-68
2024/01/14 02:21:52;;;;;;;13.98;4.45;;;;;;;1.38;89.61;100610.75;5073589;28;20613;-69
2024/01/14 02:24:24;;;;;;;15.48;5.97;;;;;;;1.42;89.61;100600.19;5066182;28;20033;-68
2024/01/14 02:26:49;;;;;;;16.88;5.45;;;;;;;1.46;89.35;100604.25;5073261;28;20462;-68
2024/01/14 02:29:15;;;;;;;13.45;5.43;;;;;;;1.53;89.44;100595.31;5068994;28;20039;-68
2024/01/14 02:31:40;;;;;;;16.10;6.22;;;;;;;1.57;89.43;100601.94;5071608;28;20031;-69
2024/01/14 02:34:09;;;;;;;19.98;7.28;;;;;;;1.62;90.27;100592.25;5069278;28;20056;-68
2024/01/14 02:36:34;;;;;;;14.10;5.95;;;;;;;1.62;90.39;100588.84;5070813;28;20029;-68
2024/01/14 02:38:59;;;;;;;11.93;4.85;;;;;;;1.73;89.59;100588.25;5069232;28;20028;-68
2024/01/14 02:41:25;;;;;;;14.95;6.28;;;;;;;1.78;89.52;100581.97;5067968;28;20051;-68
2024/01/14 02:43:50;;;;;;;11.45;5.25;;;;;;;1.81;89.23;100584.34;5071152;28;20028;-68
2024/01/14 02:46:16;;;;;;;11.70;4.93;;;;;;;1.80;88.55;100589.59;5067557;28;20106;-68
2024/01/14 02:48:41;;;;;;;14.27;5.97;;;;;;;1.74;87.76;100582.22;5068465;28;20082;-68
2024/01/14 02:51:07;;;;;;;12.07;5.72;;;;;;;1.70;88.33;100580.72;5068670;28;20029;-68
2024/01/14 02:53:32;;;;;;;9.20;4.95;;;;;;;1.67;88.49;100581.72;5067876;28;20411;-69
2024/01/14 02:55:57;;;;;;;12.43;5.13;;;;;;;1.64;88.46;100577.59;5071989;28;20082;-68
2024/01/14 02:58:24;;;;;;;17.10;5.78;;;;;;;1.63;88.43;100578.50;5068475;28;20040;-68
2024/01/14 03:00:49;;;;;;;11.80;4.97;;;;;;;1.63;88.26;100586.19;5067612;28;20032;-67
2024/01/14 03:03:14;;;;;;;14.50;5.97;;;;;;;1.66;88.72;100580.91;5068664;28;20725;-68
2024/01/14 03:05:40;;;;;;;14.25;5.07;;;;;;;1.72;87.59;100576.34;5069076;28;20029;-68
2024/01/14 03:08:05;;;;;;;15.75;6.53;;;;;;;1.74;88.03;100565.06;5069277;28;20037;-67
2024/01/14 03:10:31;;;;;;;18.25;6.35;;;;;;;1.77;88.69;100562.31;5068515;28;20032;-68
2024/01/14 03:12:56;;;;;;;16.13;4.93;;;;;;;1.79;88.10;100563.06;5068008;28;20024;-68
2024/01/14 03:15:22;;;;;;;20.23;6.13;;;;;;;1.82;88.34;100568.03;5068654;28;20409;-68
2024/01/14 03:17:47;;;;;;;11.82;4.95;;;;;;;1.84;88.15;100567.94;5069912;28;20031;-68
2024/01/14 03:20:13;;;;;;;12.38;5.40;;;;;;;1.81;88.29;100565.53;5069506;28;20132;-68
2024/01/14 03:22:38;;;;;;;15.52;5.68;;;;;;;1.78;87.92;100561.41;5070345;28;20115;-68
2024/01/14 03:25:04;;;;;;;12.38;4.55;;;;;;;1.73;88.69;100558.28;5067076;28;20024;-68
2024/01/14 03:27:29;;;;;;;17.08;5.80;;;;;;;1.72;88.52;100543.78;5066476;28;20134;-68
2024/01/14 03:29:55;;;;;;;12.57;5.35;;;;;;;1.72;89.25;100545.50;5068770;28;20042;-68
2024/01/14 03:32:20;;;;;;;14.05;5.53;;;;;;;1.76;88.87;100550.41;5068768;28;20037;-68
2024/01/14 03:34:46;;;;;;;12.45;6.30;;;;;;;1.82;90.05;100546.66;5068491;28;20037;-68
2024/01/14 03:37:11;;;;;;;17.13;6.30;;;;;;;1.81;89.92;100548.41;5068975;28;20033;-68
2024/01/14 03:39:36;;;;;;;13.35;5.03;;;;;;;1.77;88.79;100536.63;5070380;28;20505;-68
2024/01/14 03:42:02;;;;;;;17.80;6.05;;;;;;;1.74;88.99;100535.97;5067315;28;20059;-68
2024/01/14 03:44:27;;;;;;;16.80;5.90;;;;;;;1.73;89.63;100537.72;5073119;28;20029;-68
2024/01/14 03:46:53;;;;;;;12.85;5.50;;;;;;;1.73;89.97;100531.75;5074412;28;20142;-68
2024/01/14 03:49:18;;;;;;;15.48;5.15;;;;;;;1.74;90.26;100536.81;5079521;28;20554;-68
2024/01/14 03:51:44;;;;;;;20.15;5.95;;;;;;;1.81;90.29;100534.72;5076694;28;20040;-68
2024/01/14 03:54:09;;;;;;;17.75;6.20;;;;;;;1.88;90.14;100536.84;5075368;28;20467;-68
2024/01/14 03:56:34;;;;;;;14.65;5.57;;;;;;;1.89;89.88;100535.13;5073497;28;20039;-68
2024/01/14 03:59:00;;;;;;;16.45;6.63;;;;;;;1.91;89.43;100530.69;5073728;28;20037;-68
2024/01/14 04:01:26;;;;;;;14.98;6.25;;;;;;;1.94;89.39;100533.91;5074862;28;20069;-68
2024/01/14 04:03:51;;;;;;;12.80;6.32;;;;;;;1.90;89.70;100518.75;5073382;28;20035;-67
2024/01/14 04:06:23;;;;;;;14.48;5.93;;;;;;;1.90;89.27;100524.72;5074904;28;20051;-68
2024/01/14 04:08:49;;;;;;;10.25;4.22;;;;;;;1.89;88.81;100523.06;5072199;28;20095;-68
2024/01/14 04:11:14;;;;;;;9.35;4.70;;;;;;;1.85;89.17;100523.34;5073961;28;20028;-68
2024/01/14 04:13:40;;;;;;;14.30;5.57;;;;;;;1.84;89.20;100519.13;5076280;28;20504;-68
2024/01/14 04:16:07;;;;;;;12.05;4.97;;;;;;;1.85;89.36;100520.78;5074411;28;20116;-68
2024/01/14 04:18:34;;;;;;;14.15;4.93;;;;;;;1.85;89.15;100513.09;5074788;28;20099;-67
2024/01/14 04:20:59;;;;;;;16.67;5.75;;;;;;;1.88;89.21;100524.00;5077570;28;20032;-68
2024/01/14 04:23:25;;;;;;;13.77;6.32;;;;;;;1.90;88.63;100516.19;5073266;28;20024;-68
2024/01/14 04:25:50;;;;;;;12.60;5.93;;;;;;;1.90;88.51;100513.63;5071970;28;20064;-68
2024/01/14 04:28:16;;;;;;;17.40;5.70;;;;;;;1.91;88.15;100517.84;5073209;28;20037;-68
2024/01/14 04:30:41;;;;;;;16.52;5.47;;;;;;;1.88;88.33;100516.31;5074276;28;20050;-68
2024/01/14 04:33:06;;;;;;;14.82;6.53;;;;;;;1.85;89.04;100521.63;5074350;28;20040;-68
2024/01/14 04:35:32;;;;;;;17.45;5.47;;;;;;;1.85;88.92;100518.22;5073884;28;20048;-68
2024/01/14 04:37:57;;;;;;;13.52;5.63;;;;;;;1.90;88.73;100516.19;5075604;28;20032;-69
2024/01/14 04:40:23;;;;;;;12.35;5.13;;;;;;;1.94;89.15;100525.38;5072264;28;20405;-68
2024/01/14 04:42:48;;;;;;;18.80;7.13;;;;;;;1.93;88.90;100528.84;5074961;28;21351;-67
2024/01/14 04:45:15;;;;;;;14.02;5.65;;;;;;;1.97;88.26;100527.78;5076006;28;20051;-67
2024/01/14 04:47:40;;;;;;;11.40;5.70;;;;;;;1.97;88.45;100526.03;5074361;28;20033;-68
2024/01/14 04:50:06;;;;;;;21.55;6.97;;;;;;;1.96;87.89;100526.94;5076414;28;20602;-68
2024/01/14 04:52:31;;;;;;;17.13;7.72;;;;;;;1.99;88.58;100523.38;5072627;28;20508;-68
2024/01/14 04:54:56;;;;;;;13.48;6.80;;;;;;;2.02;88.69;100523.19;5070567;28;20485;-68
2024/01/14 04:57:22;;;;;;;17.35;7.13;;;;;;;2.04;89.62;100523.94;5071960;28;20036;-67
2024/01/14 04:59:47;;;;;;;15.82;6.40;;;;;;;2.05;89.16;100525.59;5069035;28;20048;-68
2024/01/14 05:02:13;;;;;;;16.75;6.45;;;;;;;2.05;88.32;100514.47;5069488;28;20063;-67
2024/01/14 05:04:38;;;;;;;13.13;6.22;;;;;;;2.03;88.10;100522.28;5072416;28;20473;-68
2024/01/14 05:07:04;;;;;;;16.90;6.47;;;;;;;2.03;88.92;100509.44;5071122;28;20621;-67
2024/01/14 05:09:29;;;;;;;13.68;6.53;;;;;;;2.04;88.98;100503.38;5072964;28;20029;-68
2024/01/14 05:11:55;;;;;;;17.25;6.47;;;;;;;2.05;88.83;100501.63;5074090;28;20035;-68
2024/01/14 05:14:20;;;;;;;17.85;6.53;;;;;;;2.10;88.38;100500.44;5070177;28;20039;-68
2024/01/14 05:16:46;;;;;;;15.27;6.35;;;;;;;2.14;89.03;100496.78;5069125;28;20035;-67
2024/01/14 05:19:11;;;;;;;17.05;7.50;;;;;;;2.14;88.55;100503.66;5071179;28;20064;-67
2024/01/14 05:21:37;;;;;;;19.52;7.00;;;;;;;2.12;89.06;100493.47;5068921;28;20625;-68
2024/01/14 05:24:02;;;;;;;17.35;6.88;;;;;;;2.12;87.75;100492.66;5070299;28;20024;-68
2024/01/14 05:26:28;;;;;;;16.27;5.85;;;;;;;2.08;87.93;100489.44;5069249;28;20024;-68
2024/01/14 05:28:56;;;;;;;14.80;6.35;;;;;;;2.09;88.21;100485.94;5068554;28;20068;-68
2024/01/14 05:31:22;;;;;;;16.63;6.80;;;;;;;2.09;88.47;100491.09;5071738;28;20037;-68
2024/01/14 05:33:47;;;;;;;15.55;6.60;;;;;;;2.07;87.98;100485.22;5067592;28;20036;-68
2024/01/14 05:36:12;;;;;;;19.20;7.43;;;;;;;2.06;88.10;100480.97;5069225;28;20028;-68
2024/01/14 05:38:38;;;;;;;21.33;7.78;;;;;;;2.10;87.91;100481.63;5068647;28;20032;-69
2024/01/14 05:41:03;;;;;;;11.07;5.82;;;;;;;2.10;87.91;100479.88;5068391;28;20497;-67
2024/01/14 05:43:29;;;;;;;16.38;6.68;;;;;;;2.11;88.17;100484.13;5069355;28;20038;-68
2024/01/14 05:45:54;;;;;;;22.65;8.18;;;;;;;2.12;88.55;100483.19;5073254;28;20032;-68
2024/01/14 05:48:20;;;;;;;24.17;8.02;;;;;;;2.13;88.38;100479.72;5070393;28;20137;-68
2024/01/14 05:50:45;;;;;;;18.30;7.35;;;;;;;2.16;88.72;100471.81;5069893;28;20028;-67
2024/01/14 05:53:11;;;;;;;22.33;8.07;;;;;;;2.19;88.53;100470.81;5064229;28;20032;-69
2024/01/14 05:55:36;;;;;;;23.02;7.72;;;;;;;2.17;88.89;100467.50;5067908;28;20720;-68
2024/01/14 05:58:02;;;;;;;15.07;7.07;;;;;;;2.16;88.33;100471.81;5071682;28;20312;-68
2024/01/14 06:00:27;;;;;;;15.57;7.13;;;;;;;2.17;88.54;100468.34;5067374;28;20151;-68
2024/01/14 06:02:53;;;;;;;18.17;6.95;;;;;;;2.20;88.95;100467.31;5069920;28;20036;-69
2024/01/14 06:05:18;;;;;;;20.13;7.25;;;;;;;2.22;88.54;100468.06;5068980;28;20039;-68
2024/01/14 06:07:43;;;;;;;18.45;8.15;;;;;;;2.20;89.18;100457.88;5068508;28;20032;-68
2024/01/14 06:10:09;;;;;;;13.48;7.07;;;;;;;2.21;89.30;100463.84;5071111;28;20035;-68
2024/01/14 06:12:34;;;;;;;25.33;8.95;;;;;;;2.23;89.22;100462.00;5068424;28;20028;-68
2024/01/14 06:15:00;;;;;;;19.48;8.00;;;;;;;2.28;89.45;100471.09;5066415;28;20560;-68
2024/01/14 06:17:25;;;;;;;19.20;7.03;;;;;;;2.30;89.38;100474.41;5067950;28;20055;-68
2024/01/14 06:19:51;;;;;;;18.85;8.57;;;;;;;2.30;89.47;100474.41;5069754;28;20142;-68
2024/01/14 06:22:16;;;;;;;20.98;8.27;;;;;;;2.35;89.05;100461.28;5068981;28;20029;-68
2024/01/14 06:24:45;;;;;;;19.15;7.57;;;;;;;2.39;89.38;100469.59;5068476;28;20059;-68
2024/01/14 06:27:10;;;;;;;21.00;8.02;;;;;;;2.38;89.10;100473.09;5068711;28;20043;-68
2024/01/14 06:29:36;;;;;;;21.45;8.27;;;;;;;2.40;89.65;100466.09;5071141;28;20369;-68
2024/01/14 06:32:01;;;;;;;19.25;6.70;;;;;;;2.40;89.10;100463.53;5069978;28;20032;-68
2024/01/14 06:34:26;;;;;;;19.13;7.85;;;;;;;2.44;88.83;100467.59;5066732;28;20056;-68
2024/01/14 06:36:52;;;;;;;19.13;7.70;;;;;;;2.49;89.06;100470.72;5068542;28;20031;-68
2024/01/14 06:39:17;;;;;;;23.02;7.60;;;;;;;2.53;88.56;100475.56;5068014;28;20041;-68
2024/01/14 06:41:43;;;;;;;21.38;7.60;;;;;;;2.46;88.62;100473.47;5067153;28;20028;-67
2024/01/14 06:44:08;;;;;;;21.35;7.90;;;;;;;2.43;88.58;100466.75;5070370;28;20032;-68
2024/01/14 06:46:33;;;;;;;16.48;6.97;;;;;;;2.42;89.51;100477.13;5068299;28;20040;-68
2024/01/14 06:48:59;;;;;;;18.63;7.53;;;;;;;2.38;89.26;100471.34;5064484;28;20024;-68
2024/01/14 06:51:24;;;;;;;16.75;7.47;;;;;;;2.40;89.45;100471.25;5069190;28;20058;-68
2024/01/14 06:53:50;;;;;;;19.52;8.27;;;;;;;2.47;89.16;100464.81;5064891;28;20381;-68
2024/01/14 06:56:16;;;;;;;22.10;8.05;;;;;;;2.51;89.48;100466.28;5069260;28;20036;-68
2024/01/14 06:58:41;;;;;;;18.83;7.45;;;;;;;2.50;89.43;100456.94;5068250;28;20086;-68
2024/01/14 07:01:07;;;;;;;15.52;7.75;;;;;;;2.51;89.19;100456.84;5068602;28;20025;-68
2024/01/14 07:03:33;;;;;;;24.25;7.80;;;;;;;2.55;88.89;100462.63;5066994;28;20037;-68
2024/01/14 07:05:58;;;;;;;21.23;8.32;;;;;;;2.55;89.17;100453.16;5067772;28;20094;-68
2024/01/14 07:08:25;;;;;;;22.38;8.38;;;;;;;2.53;89.14;100459.31;5069076;28;20075;-68
2024/01/14 07:10:50;;;;;;;23.23;8.43;;;;;;;2.49;89.27;100457.84;5072549;28;20075;-68
2024/01/14 07:13:17;;;;;;;14.82;6.70;;;;;;;2.50;88.83;100462.91;5068000;28;20024;-68
2024/01/14 07:15:43;;;;;;;15.80;7.97;;;;;;;2.54;88.90;100466.09;5065735;28;20041;-68
2024/01/14 07:18:08;;;;;;;24.90;7.93;;;;;;;2.57;89.00;100463.34;5066879;28;20397;-67
2024/01/14 07:20:34;;;;;;;17.70;7.85;;;;;;;2.55;89.71;100463.44;5072800;28;20103;-68
2024/01/14 07:22:59;;;;;;;16.02;7.45;;;;;;;2.57;89.57;100460.78;5068169;28;20032;-68
2024/01/14 07:25:26;;;;;;;18.52;7.28;;;;;;;2.55;89.54;100463.44;5069524;28;20130;-68
2024/01/14 07:27:51;;;;;;;17.60;7.53;;;;;;;2.67;89.55;100464.44;5067064;28;20207;-68
2024/01/14 07:30:18;;;;;;;17.60;7.70;;;;;;;2.67;90.67;100474.75;5068928;28;20120;-68
2024/01/14 07:32:45;;;;;;;13.85;7.40;;;;;;;2.58;91.25;100473.56;5069275;28;20035;-67
2024/01/14 07:35:11;;;;;;;15.38;7.85;;;;;;;2.51;92.61;100476.59;5069164;28;20509;-68
2024/01/14 07:37:36;;;;;;;16.20;7.10;;;;;;;2.45;93.70;100482.09;5067553;28;20036;-68
2024/01/14 07:40:02;;;;;;;20.83;8.23;;;;;;;2.42;94.20;100479.69;5069406;28;20028;-67
2024/01/14 07:42:27;;;;;;;18.42;7.72;;;;;;;2.41;94.55;100486.59;5066759;28;20052;-68
2024/01/14 07:44:53;;;;;;;16.38;6.68;;;;;;;2.42;95.16;100485.69;5070547;28;20085;-68
2024/01/14 07:47:20;;;;;;;21.67;8.52;;;;;;;2.41;95.54;100483.19;5072180;28;20056;-67
2024/01/14 07:49:48;;;;;;;19.02;7.90;;;;;;;2.40;95.83;100495.22;5066614;28;20033;-67
2024/01/14 07:52:16;;;;;;;19.50;8.82;;;;;;;2.41;94.97;100489.16;5068819;28;20036;-67
2024/01/14 07:54:41;;;;;;;20.05;9.10;;;;;;;2.52;93.61;100485.94;5069370;28;20115;-69
2024/01/14 07:57:07;;;;;;;23.40;10.40;;;;;;;2.62;94.20;100485.31;5067955;28;20159;-67
2024/01/14 07:59:32;;;;;;;33.80;10.77;;;;;;;2.75;93.58;100493.09;5066822;28;20457;-67
2024/01/14 08:01:58;;;;;;;25.13;10.38;;;;;;;2.82;92.98;100491.00;5065763;28;20028;-67
2024/01/14 08:04:23;;;;;;;28.35;10.15;;;;;;;2.89;91.33;100494.81;5066910;28;20040;-67
2024/01/14 08:06:48;;;;;;;25.58;10.57;;;;;;;2.90;91.22;100499.03;5070444;28;20047;-68
2024/01/14 08:09:14;;;;;;;20.73;9.10;;;;;;;2.88;91.69;100496.56;5071189;28;20028;-68
2024/01/14 08:11:40;;;;;;;25.80;9.05;;;;;;;2.84;91.02;100494.25;5062519;28;20182;-67
2024/01/14 08:14:05;;;;;;;22.08;8.77;;;;;;;2.85;90.54;100501.06;5066953;28;20039;-68
2024/01/14 08:16:30;;;;;;;16.38;7.53;;;;;;;2.82;89.43;100493.56;5070937;28;20032;-67
2024/01/14 08:18:56;;;;;;;18.23;8.10;;;;;;;2.79;90.46;100492.00;5067803;28;20123;-67
2024/01/14 08:21:22;;;;;;;14.85;6.45;;;;;;;2.75;90.07;100494.84;5065869;28;20032;-67
2024/01/14 08:23:48;;;;;;;16.42;7.68;;;;;;;2.74;90.50;100490.63;5066233;28;20036;-67
2024/01/14 08:26:13;;;;;;;18.48;7.75;;;;;;;2.73;89.92;100494.13;5067305;28;20028;-67
2024/01/14 08:28:38;;;;;;;20.58;7.88;;;;;;;2.71;89.20;100499.38;5072399;28;20043;-67
2024/01/14 08:31:04;;;;;;;19.92;7.47;;;;;;;2.78;88.39;100495.50;5068241;28;20036;-67
2024/01/14 08:33:30;;;;;;;20.13;6.45;;;;;;;2.76;88.79;100494.75;5066655;28;20039;-67
2024/01/14 08:35:55;;;;;;;15.43;7.05;;;;;;;2.74;89.73;100504.31;5072130;28;20068;-67
2024/01/14 08:38:21;;;;;;;18.00;7.53;;;;;;;2.67;89.85;100503.88;5071016;28;20037;-67
2024/01/14 08:40:47;;;;;;;19.27;7.13;;;;;;;2.69;90.24;100497.78;5070520;28;20474;-67
2024/01/14 08:43:13;;;;;;;15.75;6.60;;;;;;;2.73;89.57;100492.38;5073697;28;20059;-66
2024/01/14 08:45:38;;;;;;;15.63;7.80;;;;;;;2.75;89.12;100500.84;5070040;28;20369;-67
2024/01/14 08:48:06;;;;;;;21.15;7.10;;;;;;;2.76;89.24;100511.94;5072135;28;20437;-67
2024/01/14 08:50:32;;;;;;;17.45;8.00;;;;;;;2.78;89.80;100508.34;5069649;28;20163;-65
2024/01/14 08:52:57;;;;;;;16.40;7.85;;;;;;;2.80;89.05;100500.53;5072957;28;20381;-65
2024/01/14 08:55:23;;;;;;;20.80;8.52;;;;;;;2.83;88.73;100508.91;5070340;28;20849;-66
2024/01/14 08:57:48;;;;;;;16.25;7.25;;;;;;;2.83;88.08;100508.09;5068168;28;20032;-66
2024/01/14 09:00:14;;;;;;;14.90;7.40;;;;;;;2.86;87.52;100510.44;5072065;28;20170;-65
2024/01/14 09:02:40;;;;;;;18.42;7.53;;;;;;;2.87;89.04;100512.91;5065287;28;20489;-65
2024/01/14 09:05:05;;;;;;;17.02;7.38;;;;;;;2.92;88.27;100510.88;5067430;28;20112;-65
2024/01/14 09:07:31;;;;;;;14.18;6.95;;;;;;;2.96;89.26;100517.50;5065700;28;20042;-65
2024/01/14 09:09:56;;;;;;;23.05;8.35;;;;;;;2.95;89.55;100507.31;5070859;28;20032;-66
2024/01/14 09:12:22;;;;;;;15.27;7.07;;;;;;;2.97;88.33;100519.16;5068929;28;20036;-65
2024/01/14 09:14:48;;;;;;;14.45;6.00;;;;;;;3.00;87.80;100513.81;5071730;28;20123;-65
2024/01/14 09:17:13;;;;;;;18.52;8.65;;;;;;;3.03;86.84;100509.41;5066267;28;20434;-66
2024/01/14 09:19:39;;;;;;;21.15;7.75;;;;;;;3.05;87.22;100520.44;5068492;28;20056;-67
2024/01/14 09:22:04;;;;;;;16.88;6.85;;;;;;;3.02;86.96;100521.44;5066336;28;20032;-66
2024/01/14 09:24:30;;;;;;;16.13;6.50;;;;;;;3.00;85.87;100520.72;5064958;28;20044;-66
2024/01/14 09:26:55;;;;;;;15.30;7.13;;;;;;;2.94;86.20;100516.78;5068724;28;20398;-66
2024/01/14 09:29:22;;;;;;;17.50;7.50;;;;;;;2.89;86.50;100518.78;5068739;28;20381;-66
2024/01/14 09:31:47;;;;;;;22.10;7.82;;;;;;;2.85;86.86;100516.50;5069232;28;20098;-66
2024/01/14 09:34:13;;;;;;;15.10;6.15;;;;;;;2.84;87.73;100520.00;5066810;28;20053;-66
2024/01/14 09:36:41;;;;;;;19.27;7.05;;;;;;;2.88;88.14;100519.72;5066603;28;20486;-66
2024/01/14 09:39:10;;;;;;;16.27;6.53;;;;;;;2.91;88.01;100516.97;5065769;28;20040;-66
2024/01/14 09:41:54;;;;;;;18.27;7.40;;;;;;;2.91;86.21;100516.97;5068180;28;20472;-66
2024/01/14 09:44:20;;;;;;;18.20;8.10;;;;;;;2.95;86.83;100518.44;5069638;28;20032;-66
2024/01/14 09:46:47;;;;;;;21.90;7.63;;;;;;;3.00;86.09;100515.56;5068310;28;20089;-65
2024/01/14 09:49:15;;;;;;;16.15;7.78;;;;;;;3.00;86.28;100510.41;5069126;28;20024;-66
2024/01/14 09:51:41;;;;;;;15.13;6.55;;;;;;;2.97;86.52;100505.47;5069371;28;20518;-64
2024/01/14 09:54:07;;;;;;;14.27;7.53;;;;;;;2.95;86.22;100504.72;5063987;28;20111;-66
2024/01/14 09:56:33;;;;;;;14.70;5.85;;;;;;;2.92;86.76;100507.50;5066917;28;20119;-67
2024/01/14 09:59:03;;;;;;;18.35;7.75;;;;;;;2.92;85.42;100492.88;5068344;28;20043;-67
2024/01/14 10:01:33;;;;;;;21.85;8.00;;;;;;;2.94;86.00;100485.88;5060791;28;20032;-66
2024/01/14 10:04:05;;;;;;;19.98;7.53;;;;;;;2.95;85.80;100487.53;5069355;28;20525;-66
2024/01/14 10:06:30;;;;;;;17.00;6.57;;;;;;;2.95;86.15;100484.97;5068871;28;20047;-66
2024/01/14 10:08:57;;;;;;;15.63;7.32;;;;;;;2.98;85.80;100487.34;5069936;28;20029;-66
2024/01/14 10:11:23;;;;;;;16.42;7.70;;;;;;;2.98;86.31;100482.19;5067939;28;20037;-67
2024/01/14 10:13:49;;;;;;;20.88;8.75;;;;;;;2.98;85.75;100478.81;5063406;28;20119;-65
2024/01/14 10:16:15;;;;;;;19.20;8.00;;;;;;;2.99;85.16;100477.88;5065537;28;20131;-66
2024/01/14 10:18:40;;;;;;;23.60;8.57;;;;;;;3.00;86.24;100472.63;5071507;28;20145;-66
2024/01/14 10:21:06;;;;;;;18.05;7.93;;;;;;;3.00;86.40;100472.63;5068861;28;20048;-66
2024/01/14 10:23:32;;;;;;;16.13;6.78;;;;;;;3.05;85.70;100463.81;5067067;28;20028;-66
2024/01/14 10:26:03;;;;;;;15.93;7.05;;;;;;;3.08;85.15;100458.47;5067932;28;20081;-67
2024/01/14 10:28:35;;;;;;;18.55;7.63;;;;;;;3.09;84.54;100453.22;5068731;28;20039;-66
2024/01/14 10:31:03;;;;;;;15.48;7.55;;;;;;;3.09;85.54;100452.41;5068106;28;20111;-66
2024/01/14 10:33:35;;;;;;;15.93;6.97;;;;;;;3.06;87.03;100448.25;5065279;28;20471;-66
2024/01/14 10:36:05;;;;;;;24.83;8.70;;;;;;;3.03;87.76;100443.31;5076282;28;20145;-65
2024/01/14 10:38:31;;;;;;;20.33;7.50;;;;;;;3.05;86.11;100445.78;5061885;28;20543;-67
2024/01/14 10:40:56;;;;;;;16.50;7.10;;;;;;;3.09;86.78;100437.78;5064609;28;20032;-66
2024/01/14 10:43:24;;;;;;;17.42;7.15;;;;;;;3.12;86.03;100431.59;5064011;28;20059;-66
2024/01/14 10:45:51;;;;;;;19.05;7.55;;;;;;;3.12;86.38;100427.28;5068766;28;20528;-67
2024/01/14 10:48:23;;;;;;;21.80;7.07;;;;;;;3.14;85.47;100425.44;5069996;28;20043;-67
2024/01/14 10:50:52;;;;;;;22.70;8.30;;;;;;;3.14;85.43;100422.03;5068986;28;20028;-68
2024/01/14 10:54:02;;;;;;;16.10;7.45;;;;;;;3.11;84.77;100410.19;5068125;28;20039;-67
2024/01/14 10:56:34;;;;;;;20.98;7.35;;;;;;;3.12;86.16;100408.44;4973312;28;20508;-67
2024/01/14 10:59:03;;;;;;;14.75;7.72;;;;;;;3.15;87.68;100410.81;4987111;28;20518;-66
2024/01/14 11:01:31;;;;;;;22.90;8.02;;;;;;;3.13;87.19;100405.75;4986598;28;20045;-67
2024/01/14 11:04:00;;;;;;;19.73;8.38;;;;;;;3.11;86.54;100407.59;4985589;28;20042;-67
2024/01/14 11:06:26;;;;;;;20.77;7.35;;;;;;;3.17;86.16;100401.25;4984570;28;20064;-67
2024/01/14 11:08:52;;;;;;;20.73;8.82;;;;;;;3.18;85.60;100392.59;4983131;28;20094;-66
2024/01/14 11:11:24;;;;;;;17.70;6.70;;;;;;;3.16;86.97;100384.97;4988291;28;20054;-66
2024/01/14 11:14:14;;;;;;;19.83;7.93;;;;;;;3.20;86.43;100377.88;4984144;28;20435;-66
2024/01/14 11:16:58;;;;;;;22.83;8.63;;;;;;;3.24;86.86;100376.75;4985588;28;20044;-67
2024/01/14 11:19:31;;;;;;;19.27;7.68;;;;;;;3.28;87.46;100367.91;4983130;28;20042;-71